createdAt,value
2022-09-18T00:00:22.384Z,98147.88
2022-09-18T00:02:25.475Z,98143.81
2022-09-18T00:04:28.437Z,98142.19
2022-09-18T00:06:33.283Z,98140.50
2022-09-18T00:08:38.511Z,98150.84
2022-09-18T00:10:42.241Z,98149.06
2022-09-18T00:12:45.249Z,98138.59
2022-09-18T00:14:48.292Z,98142.19
2022-09-18T00:16:52.801Z,98138.72
2022-09-18T00:18:55.819Z,98140.50
2022-09-18T00:21:04.923Z,98143.34
2022-09-18T00:23:07.943Z,98140.34
2022-09-18T00:25:10.956Z,98135.13
2022-09-18T00:27:14.088Z,98142.13
2022-09-18T00:29:18.114Z,98144.63
2022-09-18T00:31:25.551Z,98141.88
2022-09-18T00:33:29.940Z,98140.25
2022-09-18T00:35:32.871Z,98138.44
2022-09-18T00:37:35.885Z,98132.28
2022-09-18T00:39:38.976Z,98141.78
2022-09-18T00:41:43.852Z,98144.28
2022-09-18T00:43:47.197Z,98138.22
2022-09-18T00:45:54.641Z,98135.72
2022-09-18T00:47:58.240Z,98130.59
2022-09-18T00:50:08.264Z,98135.00
2022-09-18T00:52:12.158Z,98142.63
2022-09-18T00:54:19.372Z,98135.13
2022-09-18T00:56:22.422Z,98134.38
2022-09-18T00:58:25.463Z,98138.78
2022-09-18T01:00:31.039Z,98136.19
2022-09-18T01:02:34.880Z,98135.34
2022-09-18T01:04:38.437Z,98130.25
2022-09-18T01:06:47.723Z,98135.59
2022-09-18T01:09:27.758Z,98138.19
2022-09-18T01:11:37.704Z,98136.53
2022-09-18T01:13:46.963Z,98142.78
2022-09-18T01:15:53.521Z,98142.09
2022-09-18T01:18:03.985Z,98138.53
2022-09-18T01:20:21.975Z,98136.84
2022-09-18T01:22:34.364Z,98143.03
2022-09-18T01:24:47.274Z,98143.88
2022-09-18T01:26:55.589Z,98143.88
2022-09-18T01:29:02.127Z,98138.66
2022-09-18T01:31:07.976Z,98136.25
2022-09-18T01:33:16.558Z,98134.47
2022-09-18T01:35:40.401Z,98143.47
2022-09-18T01:37:47.444Z,98138.47
2022-09-18T01:39:55.127Z,98141.94
2022-09-18T01:42:00.370Z,98137.66
2022-09-18T01:44:10.152Z,98136.94
2022-09-18T01:46:16.622Z,98130.16
2022-09-18T01:48:24.622Z,98122.41
2022-09-18T01:50:29.601Z,98119.09
2022-09-18T01:52:38.064Z,98123.59
2022-09-18T01:54:43.637Z,98123.38
2022-09-18T01:56:49.076Z,98118.88
2022-09-18T01:58:54.940Z,98126.81
2022-09-18T02:01:06.134Z,98126.59
2022-09-18T02:03:13.055Z,98125.50
2022-09-18T02:05:22.381Z,98118.53
2022-09-18T02:07:31.922Z,98122.06
2022-09-18T02:09:36.465Z,98114.22
2022-09-18T02:11:42.474Z,98117.91
2022-09-18T02:13:49.640Z,98113.63
2022-09-18T02:15:58.788Z,98123.97
2022-09-18T02:18:07.040Z,98122.91
2022-09-18T02:20:19.589Z,98108.06
2022-09-18T02:22:24.410Z,98111.63
2022-09-18T02:24:36.432Z,98107.31
2022-09-18T02:26:41.110Z,98102.94
2022-09-18T02:28:45.849Z,98112.56
2022-09-18T02:30:49.475Z,98113.41
2022-09-18T02:32:55.130Z,98120.28
2022-09-18T02:35:01.038Z,98120.28
2022-09-18T02:37:18.348Z,98109.00
2022-09-18T02:39:32.097Z,98113.31
2022-09-18T02:41:40.229Z,98117.66
2022-09-18T02:43:55.397Z,98113.63
2022-09-18T02:46:06.837Z,98111.84
2022-09-18T02:48:22.698Z,98120.41
2022-09-18T02:50:32.952Z,98116.84
2022-09-18T02:52:43.305Z,98119.69
2022-09-18T02:54:49.140Z,98125.03
2022-09-18T02:56:55.010Z,98124.81
2022-09-18T02:59:03.327Z,98124.81
2022-09-18T03:01:07.834Z,98135.16
2022-09-18T03:03:14.524Z,98120.50
2022-09-18T03:05:23.500Z,98114.34
2022-09-18T03:07:32.402Z,98107.44
2022-09-18T03:09:35.691Z,98106.03
2022-09-18T03:11:39.690Z,98104.22
2022-09-18T03:13:42.788Z,98099.22
2022-09-18T03:15:45.842Z,98096.00
2022-09-18T03:17:48.936Z,98105.66
2022-09-18T03:19:51.974Z,98102.19
2022-09-18T03:21:54.974Z,98102.06
2022-09-18T03:24:01.004Z,98101.13
2022-09-18T03:26:06.547Z,98108.97
2022-09-18T03:28:10.100Z,98104.69
2022-09-18T03:30:16.347Z,98106.34
2022-09-18T03:32:19.345Z,98101.13
2022-09-18T03:34:25.296Z,98106.25
2022-09-18T03:36:28.288Z,98096.84
2022-09-18T03:38:33.213Z,98094.22
2022-09-18T03:40:37.812Z,98104.56
2022-09-18T03:42:44.250Z,98107.19
2022-09-18T03:44:47.270Z,98111.81
2022-09-18T03:46:57.870Z,98113.50
2022-09-18T03:49:00.967Z,98115.03
2022-09-18T03:51:07.091Z,98113.25
2022-09-18T03:53:10.109Z,98113.03
2022-09-18T03:55:37.875Z,98113.38
2022-09-18T03:58:00.862Z,98113.97
2022-09-18T04:00:22.476Z,98124.19
2022-09-18T04:02:31.295Z,98117.28
2022-09-18T04:04:53.815Z,98110.88
2022-09-18T04:07:16.001Z,98110.13
2022-09-18T04:09:19.117Z,98119.75
2022-09-18T04:11:27.743Z,98116.78
2022-09-18T04:13:31.026Z,98122.72
2022-09-18T04:15:39.499Z,98120.00
2022-09-18T04:17:42.866Z,98115.59
2022-09-18T04:19:49.043Z,98116.44
2022-09-18T04:21:54.397Z,98120.69
2022-09-18T04:23:59.535Z,98118.09
2022-09-18T04:26:08.807Z,98111.88
2022-09-18T04:28:17.210Z,98121.81
2022-09-18T04:30:24.879Z,98121.59
2022-09-18T04:32:27.996Z,98123.28
2022-09-18T04:34:30.976Z,98117.81
2022-09-18T04:36:34.011Z,98123.88
2022-09-18T04:38:38.145Z,98123.75
2022-09-18T04:40:41.233Z,98129.31
2022-09-18T04:42:44.696Z,98127.44
2022-09-18T04:44:49.123Z,98129.84
2022-09-18T04:46:52.355Z,98127.13
2022-09-18T04:48:55.473Z,98122.72
2022-09-18T04:51:01.523Z,98127.78
2022-09-18T04:53:04.562Z,98129.53
2022-09-18T04:55:09.780Z,98123.38
2022-09-18T04:57:13.970Z,98121.91
2022-09-18T04:59:21.999Z,98122.78
2022-09-18T05:01:26.413Z,98122.44
2022-09-18T05:03:29.710Z,98123.28
2022-09-18T05:05:33.098Z,98128.16
2022-09-18T05:07:36.181Z,98123.75
2022-09-18T05:09:39.310Z,98135.06
2022-09-18T05:11:43.797Z,98134.31
2022-09-18T05:13:49.181Z,98130.88
2022-09-18T05:15:55.580Z,98140.41
2022-09-18T05:18:01.905Z,98131.38
2022-09-18T05:20:06.367Z,98138.16
2022-09-18T05:22:14.444Z,98138.16
2022-09-18T05:24:22.803Z,98140.78
2022-09-18T05:26:28.258Z,98145.78
2022-09-18T05:28:32.388Z,98140.78
2022-09-18T05:30:36.496Z,98139.84
2022-09-18T05:32:39.483Z,98141.50
2022-09-18T05:34:43.930Z,98145.78
2022-09-18T05:36:47.172Z,98144.75
2022-09-18T05:38:51.463Z,98143.78
2022-09-18T05:40:54.530Z,98144.75
2022-09-18T05:42:59.132Z,98149.13
2022-09-18T05:45:02.315Z,98142.13
2022-09-18T05:47:06.553Z,98150.69
2022-09-18T05:49:09.907Z,98157.47
2022-09-18T05:51:14.466Z,98152.25
2022-09-18T05:53:19.194Z,98151.63
2022-09-18T05:55:42.674Z,98145.06
2022-09-18T05:57:45.784Z,98156.47
2022-09-18T05:59:48.779Z,98154.78
2022-09-18T06:01:51.878Z,98159.78
2022-09-18T06:04:02.632Z,98161.34
2022-09-18T06:06:15.296Z,98155.31
2022-09-18T06:08:18.557Z,98152.28
2022-09-18T06:10:22.986Z,98161.81
2022-09-18T06:12:26.050Z,98160.13
2022-09-18T06:14:29.027Z,98160.97
2022-09-18T06:16:33.505Z,98164.31
2022-09-18T06:18:39.949Z,98162.41
2022-09-18T06:20:43.467Z,98162.19
2022-09-18T06:22:48.052Z,98168.28
2022-09-18T06:24:56.075Z,98165.53
2022-09-18T06:27:06.349Z,98176.00
2022-09-18T06:29:09.449Z,98174.91
2022-09-18T06:31:24.158Z,98172.19
2022-09-18T06:33:41.444Z,98169.47
2022-09-18T06:35:48.392Z,98161.03
2022-09-18T06:38:03.856Z,98161.13
2022-09-18T06:40:22.116Z,98156.34
2022-09-18T06:42:46.163Z,98160.75
2022-09-18T06:45:06.584Z,98168.81
2022-09-18T06:47:10.144Z,98166.22
2022-09-18T06:49:18.020Z,98166.09
2022-09-18T06:51:21.757Z,98165.88
2022-09-18T06:53:40.053Z,98170.78
2022-09-18T06:55:43.063Z,98172.63
2022-09-18T06:57:54.447Z,98173.38
2022-09-18T06:59:57.576Z,98175.66
2022-09-18T07:02:01.156Z,98178.03
2022-09-18T07:04:33.662Z,98169.81
2022-09-18T07:06:36.713Z,98174.91
2022-09-18T07:08:41.872Z,98174.47
2022-09-18T07:10:52.101Z,98183.88
2022-09-18T07:12:57.238Z,98183.88
2022-09-18T07:15:00.248Z,98176.66
2022-09-18T07:17:03.510Z,98175.59
2022-09-18T07:19:07.382Z,98183.22
2022-09-18T07:21:11.806Z,98178.22
2022-09-18T07:23:16.488Z,98180.09
2022-09-18T07:25:26.815Z,98182.47
2022-09-18T07:27:29.965Z,98180.38
2022-09-18T07:29:36.079Z,98178.09
2022-09-18T07:31:39.186Z,98186.75
2022-09-18T07:33:45.027Z,98189.16
2022-09-18T07:35:53.213Z,98193.22
2022-09-18T07:38:00.044Z,98186.31
2022-09-18T07:40:16.860Z,98193.22
2022-09-18T07:42:40.605Z,98188.22
2022-09-18T07:44:43.943Z,98195.97
2022-09-18T07:46:47.267Z,98196.44
2022-09-18T07:48:50.658Z,98205.84
2022-09-18T07:51:01.157Z,98201.13
2022-09-18T07:53:05.580Z,98201.94
2022-09-18T07:55:14.236Z,98198.84
2022-09-18T07:57:18.044Z,98203.25
2022-09-18T07:59:36.703Z,98200.50
2022-09-18T08:01:40.664Z,98194.31
2022-09-18T08:03:43.860Z,98199.66
2022-09-18T08:05:47.074Z,98204.66
2022-09-18T08:07:50.296Z,98200.19
2022-09-18T08:10:12.679Z,98207.56
2022-09-18T08:12:39.365Z,98209.22
2022-09-18T08:15:06.095Z,98209.22
2022-09-18T08:17:18.537Z,98207.19
2022-09-18T08:19:40.453Z,98210.44
2022-09-18T08:21:58.857Z,98206.84
2022-09-18T08:24:02.143Z,98210.06
2022-09-18T08:26:05.898Z,98207.56
2022-09-18T08:28:09.248Z,98209.44
2022-09-18T08:30:20.984Z,98206.22
2022-09-18T08:32:28.471Z,98205.41
2022-09-18T08:34:32.034Z,98201.81
2022-09-18T08:36:35.624Z,98202.78
2022-09-18T08:38:46.296Z,98206.13
2022-09-18T08:41:29.946Z,98208.72
2022-09-18T08:43:46.098Z,98203.38
2022-09-18T08:45:56.068Z,98208.41
2022-09-18T08:48:01.293Z,98212.31
2022-09-18T08:50:15.820Z,98211.97
2022-09-18T08:52:20.850Z,98210.00
2022-09-18T08:54:41.067Z,98211.19
2022-09-18T08:56:52.283Z,98205.72
2022-09-18T08:59:14.122Z,98207.16
2022-09-18T09:01:19.632Z,98204.81
2022-09-18T09:03:43.703Z,98207.09
2022-09-18T09:05:49.744Z,98207.69
2022-09-18T09:08:09.993Z,98204.72
2022-09-18T09:10:23.942Z,98212.75
2022-09-18T09:12:34.582Z,98216.19
2022-09-18T09:14:57.022Z,98215.50
2022-09-18T09:17:06.659Z,98214.22
2022-09-18T09:19:22.249Z,98221.09
2022-09-18T09:21:44.881Z,98222.06
2022-09-18T09:23:59.036Z,98220.16
2022-09-18T09:26:32.167Z,98221.81
2022-09-18T09:29:00.474Z,98215.63
2022-09-18T09:31:36.517Z,98222.88
2022-09-18T09:33:59.795Z,98216.47
2022-09-18T09:36:33.346Z,98220.28
2022-09-18T09:38:47.151Z,98217.78
2022-09-18T09:40:51.708Z,98218.47
2022-09-18T09:42:58.450Z,98207.88
2022-09-18T09:45:04.913Z,98215.63
2022-09-18T09:47:17.792Z,98212.53
2022-09-18T09:49:25.334Z,98208.22
2022-09-18T09:51:32.178Z,98227.06
2022-09-18T09:53:36.330Z,98210.75
2022-09-18T09:55:45.750Z,98212.06
2022-09-18T09:57:53.902Z,98208.13
2022-09-18T10:00:06.438Z,98211.19
2022-09-18T10:02:30.306Z,98211.81
2022-09-18T10:04:40.265Z,98215.97
2022-09-18T10:06:50.828Z,98210.47
2022-09-18T10:08:59.610Z,98214.41
2022-09-18T10:11:08.720Z,98214.63
2022-09-18T10:13:16.006Z,98217.75
2022-09-18T10:15:23.105Z,98209.16
2022-09-18T10:17:27.379Z,98217.03
2022-09-18T10:19:36.954Z,98203.44
2022-09-18T10:21:42.124Z,98208.53
2022-09-18T10:23:47.954Z,98210.22
2022-09-18T10:25:53.514Z,98206.22
2022-09-18T10:27:56.688Z,98209.00
2022-09-18T10:30:00.249Z,98207.88
2022-09-18T10:32:34.121Z,98212.41
2022-09-18T10:34:43.702Z,98211.88
2022-09-18T10:36:48.440Z,98206.13
2022-09-18T10:38:53.992Z,98203.94
2022-09-18T10:41:34.682Z,98198.59
2022-09-18T10:43:55.945Z,98203.00
2022-09-18T10:46:01.553Z,98201.09
2022-09-18T10:48:15.756Z,98196.72
2022-09-18T10:50:21.582Z,98182.63
2022-09-18T10:52:31.843Z,98190.00
2022-09-18T10:54:39.671Z,98191.28
2022-09-18T10:56:45.927Z,98182.78
2022-09-18T10:58:49.052Z,98183.25
2022-09-18T11:00:56.403Z,98189.63
2022-09-18T11:03:05.680Z,98176.66
2022-09-18T11:05:18.074Z,98176.66
2022-09-18T11:07:25.983Z,98183.03
2022-09-18T11:09:32.334Z,98187.47
2022-09-18T11:11:37.988Z,98186.66
2022-09-18T11:13:52.782Z,98181.66
2022-09-18T11:16:02.259Z,98180.31
2022-09-18T11:18:07.479Z,98166.69
2022-09-18T11:20:22.422Z,98172.94
2022-09-18T11:22:37.695Z,98174.75
2022-09-18T11:24:47.488Z,98168.16
2022-09-18T11:26:52.701Z,98170.78
2022-09-18T11:29:04.661Z,98162.06
2022-09-18T11:31:17.136Z,98166.63
2022-09-18T11:33:27.262Z,98158.75
2022-09-18T11:35:33.291Z,98156.09
2022-09-18T11:37:40.547Z,98158.19
2022-09-18T11:39:45.875Z,98149.28
2022-09-18T11:41:52.589Z,98126.84
2022-09-18T11:44:01.693Z,98137.34
2022-09-18T11:46:14.823Z,98131.94
2022-09-18T11:48:26.140Z,98130.13
2022-09-18T11:50:32.631Z,98126.94
2022-09-18T11:52:39.780Z,98121.84
2022-09-18T11:54:51.584Z,98126.00
2022-09-18T11:56:57.832Z,98115.06
2022-09-18T11:59:07.654Z,98105.50
2022-09-18T12:01:25.311Z,98106.91
2022-09-18T12:03:31.434Z,98111.75
2022-09-18T12:05:43.713Z,98097.06
2022-09-18T12:07:56.367Z,98101.22
2022-09-18T12:10:07.489Z,98094.88
2022-09-18T12:12:15.830Z,98085.00
2022-09-18T12:14:23.869Z,98097.19
2022-09-18T12:16:48.068Z,98088.44
2022-09-18T12:19:00.948Z,98075.59
2022-09-18T12:21:14.556Z,98084.03
2022-09-18T12:23:23.210Z,98081.69
2022-09-18T12:25:32.066Z,98075.84
2022-09-18T12:28:17.322Z,98075.16
2022-09-18T12:30:23.052Z,98074.19
2022-09-18T12:32:41.830Z,98071.13
2022-09-18T12:34:52.344Z,98067.13
2022-09-18T12:37:19.417Z,98062.69
2022-09-18T12:39:37.325Z,98057.56
2022-09-18T12:41:49.187Z,98062.69
2022-09-18T12:44:14.354Z,98055.47
2022-09-18T12:46:29.067Z,98070.72
2022-09-18T12:48:55.142Z,98064.19
2022-09-18T12:51:08.120Z,98061.94
2022-09-18T12:53:21.634Z,98059.72
2022-09-18T12:55:40.254Z,98058.63
2022-09-18T12:57:51.426Z,98052.25
2022-09-18T12:59:57.999Z,98047.53
2022-09-18T13:02:08.934Z,98057.09
2022-09-18T13:04:18.843Z,98049.75
2022-09-18T13:06:29.334Z,98047.94
2022-09-18T13:08:36.822Z,98052.25
2022-09-18T13:10:43.830Z,98058.06
2022-09-18T13:12:52.847Z,98055.28
2022-09-18T13:14:59.032Z,98049.06
2022-09-18T13:17:07.654Z,98054.88
2022-09-18T13:19:14.902Z,98050.91
2022-09-18T13:21:20.274Z,98050.63
2022-09-18T13:23:26.403Z,98058.94
2022-09-18T13:25:31.776Z,98047.88
2022-09-18T13:27:36.144Z,98048.94
2022-09-18T13:29:50.142Z,98056.16
2022-09-18T13:31:54.432Z,98052.44
2022-09-18T13:34:00.709Z,98059.47
2022-09-18T13:36:03.990Z,98050.09
2022-09-18T13:38:18.518Z,98041.50
2022-09-18T13:40:33.263Z,98049.94
2022-09-18T13:42:39.512Z,98044.81
2022-09-18T13:44:42.794Z,98033.03
2022-09-18T13:46:46.125Z,98031.22
2022-09-18T13:48:55.866Z,98041.47
2022-09-18T13:51:01.125Z,98030.97
2022-09-18T13:53:05.296Z,98032.22
2022-09-18T13:55:34.567Z,98034.03
2022-09-18T13:57:39.165Z,98021.84
2022-09-18T13:59:50.435Z,98021.28
2022-09-18T14:02:03.500Z,98019.63
2022-09-18T14:05:11.298Z,98012.97
2022-09-18T14:07:44.617Z,98019.63
2022-09-18T14:09:53.177Z,98020.16
2022-09-18T14:11:56.234Z,98018.88
2022-09-18T14:13:59.519Z,98014.59
2022-09-18T14:16:25.014Z,98029.13
2022-09-18T14:18:29.946Z,98028.56
2022-09-18T14:20:33.440Z,98015.53
2022-09-18T14:22:38.311Z,98014.25
2022-09-18T14:24:57.636Z,98015.06
2022-09-18T14:27:44.690Z,98015.78
2022-09-18T14:29:48.862Z,98018.28
2022-09-18T14:31:53.150Z,98017.56
2022-09-18T14:33:57.321Z,98012.59
2022-09-18T14:36:04.544Z,98016.19
2022-09-18T14:38:27.659Z,98009.28
2022-09-18T14:40:32.344Z,98004.56
2022-09-18T14:42:37.723Z,98006.66
2022-09-18T14:44:41.064Z,98003.19
2022-09-18T14:46:53.339Z,97998.91
2022-09-18T14:48:56.692Z,97992.56
2022-09-18T14:51:02.286Z,97986.44
2022-09-18T14:53:21.653Z,97988.66
2022-09-18T14:55:28.557Z,97994.50
2022-09-18T14:57:37.207Z,97990.91
2022-09-18T14:59:41.137Z,97993.78
2022-09-18T15:01:44.540Z,97987.59
2022-09-18T15:03:49.493Z,97977.75
2022-09-18T15:05:54.796Z,97976.69
2022-09-18T15:08:02.021Z,97976.28
2022-09-18T15:10:07.168Z,97974.22
2022-09-18T15:12:16.193Z,97977.53
2022-09-18T15:14:30.981Z,97979.06
2022-09-18T15:16:34.287Z,97981.56
2022-09-18T15:18:42.042Z,97975.75
2022-09-18T15:20:49.708Z,97969.66
2022-09-18T15:22:53.313Z,97976.84
2022-09-18T15:24:58.635Z,97966.47
2022-09-18T15:27:02.913Z,97965.66
2022-09-18T15:29:07.089Z,97963.03
2022-09-18T15:31:13.116Z,97970.19
2022-09-18T15:33:21.153Z,97967.00
2022-09-18T15:35:26.314Z,97967.88
2022-09-18T15:37:29.714Z,97960.25
2022-09-18T15:39:34.083Z,97970.88
2022-09-18T15:41:42.394Z,97972.50
2022-09-18T15:43:46.446Z,97972.50
2022-09-18T15:46:02.614Z,97958.81
2022-09-18T15:48:34.439Z,97953.16
2022-09-18T15:50:46.111Z,97958.69
2022-09-18T15:53:02.984Z,97957.41
2022-09-18T15:55:12.435Z,97960.31
2022-09-18T15:57:16.600Z,97953.50
2022-09-18T15:59:26.368Z,97956.13
2022-09-18T16:01:35.231Z,97954.50
2022-09-18T16:03:39.984Z,97955.44
2022-09-18T16:05:52.917Z,97950.88
2022-09-18T16:07:58.627Z,97942.88
2022-09-18T16:10:01.669Z,97956.13
2022-09-18T16:12:34.469Z,97951.72
2022-09-18T16:14:42.451Z,97950.88
2022-09-18T16:16:45.726Z,97949.94
2022-09-18T16:18:54.962Z,97944.69
2022-09-18T16:21:02.771Z,97943.72
2022-09-18T16:23:16.330Z,97934.16
2022-09-18T16:25:22.368Z,97934.31
2022-09-18T16:27:26.493Z,97934.31
2022-09-18T16:29:29.525Z,97937.75
2022-09-18T16:31:34.344Z,97926.56
2022-09-18T16:33:50.316Z,97932.63
2022-09-18T16:35:58.276Z,97925.59
2022-09-18T16:38:01.350Z,97928.91
2022-09-18T16:40:04.863Z,97920.75
2022-09-18T16:42:15.865Z,97921.44
2022-09-18T16:44:19.730Z,97919.69
2022-09-18T16:46:24.255Z,97916.78
2022-09-18T16:48:27.378Z,97917.72
2022-09-18T16:50:31.774Z,97911.66
2022-09-18T16:52:34.746Z,97914.16
2022-09-18T16:54:37.899Z,97919.41
2022-09-18T16:56:43.711Z,97910.81
2022-09-18T16:58:46.757Z,97915.25
2022-09-18T17:00:50.075Z,97918.81
2022-09-18T17:02:53.939Z,97912.75
2022-09-18T17:04:57.080Z,97917.06
2022-09-18T17:07:01.932Z,97908.31
2022-09-18T17:09:05.243Z,97908.44
2022-09-18T17:11:08.281Z,97905.16
2022-09-18T17:13:11.422Z,97905.41
2022-09-18T17:15:14.450Z,97908.03
2022-09-18T17:17:17.563Z,97907.09
2022-09-18T17:19:21.074Z,97907.63
2022-09-18T17:21:24.467Z,97896.41
2022-09-18T17:23:30.159Z,97899.88
2022-09-18T17:25:33.208Z,97903.31
2022-09-18T17:27:39.720Z,97899.88
2022-09-18T17:29:46.079Z,97894.50
2022-09-18T17:31:49.292Z,97889.25
2022-09-18T17:33:52.888Z,97886.88
2022-09-18T17:35:56.016Z,97892.97
2022-09-18T17:37:59.368Z,97892.28
2022-09-18T17:40:04.237Z,97887.16
2022-09-18T17:42:07.428Z,97888.25
2022-09-18T17:44:10.492Z,97885.63
2022-09-18T17:46:14.311Z,97886.47
2022-09-18T17:48:17.522Z,97888.25
2022-09-18T17:50:21.574Z,97886.47
2022-09-18T17:52:24.703Z,97878.72
2022-09-18T17:54:28.187Z,97893.63
2022-09-18T17:56:34.177Z,97890.88
2022-09-18T17:58:40.169Z,97890.88
2022-09-18T18:00:43.282Z,97883.13
2022-09-18T18:02:46.422Z,97878.56
2022-09-18T18:04:49.693Z,97872.34
2022-09-18T18:06:52.669Z,97871.75
2022-09-18T18:08:56.403Z,97868.72
2022-09-18T18:11:05.142Z,97880.88
2022-09-18T18:13:09.699Z,97873.28
2022-09-18T18:15:12.810Z,97875.06
2022-09-18T18:17:16.342Z,97882.91
2022-09-18T18:19:19.477Z,97885.41
2022-09-18T18:21:23.146Z,97887.09
2022-09-18T18:23:27.272Z,97890.09
2022-09-18T18:25:30.300Z,97887.88
2022-09-18T18:27:33.675Z,97898.66
2022-09-18T18:29:39.752Z,97904.03
2022-09-18T18:31:43.505Z,97893.94
2022-09-18T18:33:46.742Z,97894.06
2022-09-18T18:35:49.745Z,97901.50
2022-09-18T18:37:52.756Z,97900.94
2022-09-18T18:39:55.815Z,97897.88
2022-09-18T18:41:59.047Z,97892.88
2022-09-18T18:44:05.546Z,97901.00
2022-09-18T18:46:12.765Z,97891.50
2022-09-18T18:48:16.002Z,97894.25
2022-09-18T18:50:20.108Z,97885.66
2022-09-18T18:52:23.185Z,97891.03
2022-09-18T18:54:26.299Z,97902.53
2022-09-18T18:56:29.986Z,97888.69
2022-09-18T18:58:33.085Z,97896.56
2022-09-18T19:00:36.544Z,97895.28
2022-09-18T19:02:41.186Z,97903.28
2022-09-18T19:04:44.691Z,97903.53
2022-09-18T19:06:49.462Z,97913.00
2022-09-18T19:08:56.849Z,97915.31
2022-09-18T19:11:00.969Z,97916.25
2022-09-18T19:13:04.727Z,97906.16
2022-09-18T19:15:08.498Z,97912.63
2022-09-18T19:17:13.915Z,97912.28
2022-09-18T19:19:19.968Z,97908.97
2022-09-18T19:21:23.685Z,97909.97
2022-09-18T19:23:26.753Z,97908.16
2022-09-18T19:25:30.233Z,97907.47
2022-09-18T19:27:33.332Z,97906.88
2022-09-18T19:29:39.121Z,97906.88
2022-09-18T19:31:43.663Z,97909.59
2022-09-18T19:33:48.872Z,97901.88
2022-09-18T19:35:53.262Z,97899.50
2022-09-18T19:37:56.309Z,97906.69
2022-09-18T19:39:59.319Z,97906.94
2022-09-18T19:42:06.175Z,97917.41
2022-09-18T19:44:15.737Z,97913.13
2022-09-18T19:46:23.854Z,97920.28
2022-09-18T19:48:28.149Z,97917.78
2022-09-18T19:50:33.167Z,97923.03
2022-09-18T19:52:37.590Z,97921.47
2022-09-18T19:54:40.580Z,97925.06
2022-09-18T19:56:47.589Z,97917.47
2022-09-18T19:58:51.142Z,97915.91
2022-09-18T20:00:54.192Z,97928.31
2022-09-18T20:02:58.819Z,97924.84
2022-09-18T20:05:02.072Z,97926.66
2022-09-18T20:07:05.142Z,97929.16
2022-09-18T20:09:10.049Z,97936.31
2022-09-18T20:11:12.984Z,97945.59
2022-09-18T20:13:16.082Z,97943.13
2022-09-18T20:15:19.500Z,97938.00
2022-09-18T20:17:22.616Z,97944.22
2022-09-18T20:19:26.296Z,97938.13
2022-09-18T20:21:29.698Z,97951.59
2022-09-18T20:23:32.879Z,97948.28
2022-09-18T20:25:37.285Z,97955.19
2022-09-18T20:27:42.732Z,97955.31
2022-09-18T20:29:45.754Z,97950.31
2022-09-18T20:31:50.090Z,97949.13
2022-09-18T20:33:56.691Z,97948.31
2022-09-18T20:36:00.277Z,97942.59
2022-09-18T20:38:05.210Z,97938.56
2022-09-18T20:40:10.229Z,97942.25
2022-09-18T20:42:14.698Z,97937.97
2022-09-18T20:44:18.007Z,97936.31
2022-09-18T20:46:21.242Z,97934.53
2022-09-18T20:48:27.248Z,97932.03
2022-09-18T20:50:30.342Z,97932.41
2022-09-18T20:52:36.239Z,97928.97
2022-09-18T20:54:41.244Z,97920.25
2022-09-18T20:56:44.647Z,97926.47
2022-09-18T20:58:50.077Z,97916.69
2022-09-18T21:00:53.439Z,97914.06
2022-09-18T21:02:56.456Z,97908.13
2022-09-18T21:04:59.470Z,97909.09
2022-09-18T21:07:02.505Z,97911.13
2022-09-18T21:09:07.695Z,97902.78
2022-09-18T21:11:11.102Z,97904.69
2022-09-18T21:13:15.726Z,97905.41
2022-09-18T21:15:20.319Z,97898.28
2022-09-18T21:17:23.701Z,97897.31
2022-09-18T21:19:28.775Z,97902.31
2022-09-18T21:21:35.004Z,97898.75
2022-09-18T21:23:54.177Z,97889.81
2022-09-18T21:25:57.785Z,97893.25
2022-09-18T21:28:03.071Z,97897.56
2022-09-18T21:30:08.206Z,97893.03
2022-09-18T21:32:12.558Z,97896.47
2022-09-18T21:34:19.294Z,97893.84
2022-09-18T21:36:22.684Z,97893.72
2022-09-18T21:38:25.912Z,97896.47
2022-09-18T21:40:29.359Z,97894.81
2022-09-18T21:42:32.459Z,97900.75
2022-09-18T21:44:37.631Z,97909.41
2022-09-18T21:46:40.675Z,97915.75
2022-09-18T21:48:45.078Z,97912.88
2022-09-18T21:50:48.569Z,97910.28
2022-09-18T21:52:51.654Z,97918.81
2022-09-18T21:54:55.609Z,97921.31
2022-09-18T21:56:58.752Z,97920.28
2022-09-18T21:59:01.786Z,97924.63
2022-09-18T22:01:09.511Z,97918.00
2022-09-18T22:03:13.202Z,97928.59
2022-09-18T22:05:18.347Z,97932.03
2022-09-18T22:07:21.336Z,97934.06
2022-09-18T22:09:26.225Z,97931.69
2022-09-18T22:11:30.684Z,97933.56
2022-09-18T22:13:33.779Z,97930.03
2022-09-18T22:15:36.792Z,97942.97
2022-09-18T22:17:39.946Z,97940.50
2022-09-18T22:19:42.960Z,97946.53
2022-09-18T22:21:49.523Z,97947.41
2022-09-18T22:23:53.953Z,97952.00
2022-09-18T22:26:00.119Z,97961.78
2022-09-18T22:28:04.992Z,97965.69
2022-09-18T22:30:09.075Z,97965.94
2022-09-18T22:32:12.097Z,97964.16
2022-09-18T22:34:17.068Z,97964.06
2022-09-18T22:36:20.046Z,97965.94
2022-09-18T22:38:24.576Z,97961.81
2022-09-18T22:40:27.602Z,97980.69
2022-09-18T22:42:30.836Z,97980.56
2022-09-18T22:44:33.799Z,97992.72
2022-09-18T22:46:38.084Z,98001.38
2022-09-18T22:48:41.465Z,98009.72
2022-09-18T22:50:44.536Z,98018.63
2022-09-18T22:52:47.652Z,98012.56
2022-09-18T22:54:51.922Z,98009.47
2022-09-18T22:56:56.166Z,98020.41
2022-09-18T22:59:02.080Z,98020.59
2022-09-18T23:01:09.411Z,98018.72
2022-09-18T23:03:12.661Z,98021.66
2022-09-18T23:05:15.806Z,98027.47
2022-09-18T23:07:18.907Z,98020.53
2022-09-18T23:09:22.011Z,98013.97
2022-09-18T23:11:28.005Z,98014.09
2022-09-18T23:13:32.031Z,98018.59
2022-09-18T23:15:37.314Z,98022.88
2022-09-18T23:17:40.858Z,98013.25
2022-09-18T23:19:43.793Z,98015.88
2022-09-18T23:21:46.805Z,98023.59
2022-09-18T23:23:50.796Z,98015.75
2022-09-18T23:25:53.726Z,98015.88
2022-09-18T23:27:58.026Z,98024.53
2022-09-18T23:30:01.104Z,98030.59
2022-09-18T23:32:04.283Z,98042.81
2022-09-18T23:34:08.618Z,98043.75
2022-09-18T23:36:13.717Z,98048.16
2022-09-18T23:38:16.814Z,98050.66
2022-09-18T23:40:20.509Z,98054.22
2022-09-18T23:42:24.727Z,98057.69
2022-09-18T23:44:30.945Z,98063.84
2022-09-18T23:46:34.273Z,98061.22
2022-09-18T23:48:37.292Z,98061.34
2022-09-18T23:50:42.230Z,98063.94
2022-09-18T23:52:45.680Z,98064.06
2022-09-18T23:54:48.771Z,98066.56
2022-09-18T23:56:52.374Z,98071.09
2022-09-18T23:58:55.840Z,98069.41
